CCGS Samuel Risley — CG2960 — position and weather

sailwx.info

Track history (hours):
 
Tides and Currents Weather Stations Pressure Air Temp Water Temp Dewpoint Dewpoint Depression Visibility Wind Speed Wind Dir Waves Ship Positions

CCGS Samuel Risley (Canada)

Medium Navaids Tender - Light Icebreaker

Last reported at 2014-Nov-28 03:00 UTC. Time now 2014-Nov-28 04:16 UTC.
Position N 43°42' W 082°36'.

Length 69.73 m; beam 13.7 m; draft 5.2 m.

Type: SAR. MMSI: 316001890.

Wind from 310 at 16 knots

Barometer 1025.6 mb
Air temperature -4.7 ° C
Dewpoint -10.1 ° C
Water temperature 5.0 ° C

Date/timePositionNaut miles runAvg speedWind from/ knotsBaromVisibWave heightAir tempDewpointWater temp
2014-Nov-28 03:00N 43°42' W 082°36'6 6.0 310 / 161025.6 -4.7-10.1 5.0
2014-Nov-28 02:00N 43°48' W 082°36'31 5.1 310 / 211025.2 -4.1-9.9 2.9
2014-Nov-27 20:00N 43°54' W 081°54'1918.5 010 / 181019.2 1.1-0.6 6.7
2014-Nov-27 19:00N 44°12' W 081°48'7 7.4 020 / 141019.1 -0.1-0.8 6.9
2014-Nov-27 18:00N 44°18' W 081°42'1514.7 020 / 101019.4 -0.6-2.7 6.4
2014-Nov-27 17:00N 44°30' W 081°30'4 4.3 010 / 41019.6 -0.7-4.1 4.3
2014-Nov-27 16:00N 44°30' W 081°24'0 0.0 080 / 21019.9 -0.3-4.4 4.4
2014-Nov-27 15:00N 44°30' W 081°24'0 0.0 050 / 91019.7 1.1-3.4 4.9
2014-Nov-27 14:00N 44°30' W 081°24'7 3.7 060 / 91019.3 -1.4-4.4 4.5
2014-Nov-27 12:00N 44°36' W 081°30'6 6.0 360 / 51019.1 -0.4-3.2 6.4
2014-Nov-27 11:00N 44°42' W 081°30'7 7.4 360 / 61019.0 -0.2-3.1 6.6
2014-Nov-27 10:00N 44°48' W 081°36'6 6.0 350 / 51018.9 -0.1-3.1 6.8
2014-Nov-27 09:00N 44°54' W 081°36'4 4.3 360 / 51018.7 -0.4-3.4 6.8
2014-Nov-27 08:00N 44°54' W 081°42'1212.0 360 / 41019.4 -0.5-3.6 6.7
2014-Nov-27 07:00N 45°06' W 081°42'7 7.3 360 / 41019.9 -0.9-3.9 6.5
2014-Nov-27 06:00N 45°12' W 081°48'6 6.0 050 / 71020.0 -1.3-4.1 6.0
2014-Nov-27 05:00N 45°18' W 081°48'0 0.0 040 / 61019.7 -1.0-4.0 6.3
2014-Nov-27 04:00N 45°18' W 081°48'1312.7 080 / 151020.3 2.5-2.3 5.6
2014-Nov-27 03:00N 45°18' W 081°30'1010.3 070 / 171020.6 0.3-3.5 5.9
2014-Nov-27 02:00N 45°24' W 081°18'14 7.0 070 / 161021.2 -1.0-4.8 6.4
2014-Nov-27 00:00N 45°30' W 081°00'7 7.3 040 / 191021.8 -2.5-6.3 5.9
2014-Nov-26 23:00N 45°24' W 080°54'1514.7 040 / 161022.1 -1.8-5.6 6.9
2014-Nov-26 22:00N 45°12' W 080°42'1010.4 040 / 111022.4 -0.9-5.5 7.0
2014-Nov-26 21:00N 45°06' W 080°30'1717.5 040 / 91022.2 -0.1-5.3 6.7
2014-Nov-26 20:00N 44°54' W 080°12'1312.8 080 / 61022.4 -0.0-5.1 6.6
2014-Nov-26 19:00N 44°54' W 079°54'6 6.0 100 / 61022.5 -0.3-5.6 3.6
2014-Nov-26 18:00N 44°48' W 079°54'0 0.0 060 / 61022.4 -0.5-5.7 2.7
2014-Nov-26 17:00N 44°48' W 079°54'6 6.0 340 / 21022.8 -0.6-5.4 2.8
2014-Nov-26 16:00N 44°54' W 079°54'9 8.5 070 / 111023.9 -1.3-6.0 5.0
2014-Nov-26 15:00N 44°54' W 080°06'1312.7 060 / 121024.6 -1.4-5.6 6.9
2014-Nov-26 14:00N 45°06' W 080°12'8 4.2 060 / 151024.5 -2.3-6.5 6.5
2014-Nov-26 12:00N 45°06' W 080°24'1010.4 040 / 141023.8 -1.7-5.9 6.8
2014-Nov-26 11:00N 45°00' W 080°36'7 7.4 030 / 141023.0 -1.4-4.9 7.2
2014-Nov-26 10:00N 44°54' W 080°42'9 8.5 020 / 171022.6 -0.7-2.0 7.2
2014-Nov-26 09:00N 44°54' W 080°54'6 6.0 350 / 91023.1 1.4-1.7 6.9
2014-Nov-26 08:00N 45°00' W 080°54'6 6.0 320 / 61023.5 0.1-2.6 6.6
2014-Nov-26 07:00N 44°54' W 080°54'4 4.3 300 / 81022.9 0.2-2.9 7.0
2014-Nov-26 06:00N 44°54' W 080°48'6 6.0 300 / 71022.5 0.2-2.3
2014-Nov-26 05:00N 44°48' W 080°48'4 4.3 240 / 81022.3 1.0-3.8 7.0
2014-Nov-26 04:00N 44°48' W 080°42'7 7.4 270 / 61021.4 -0.0-1.9 7.0
2014-Nov-26 03:00N 44°54' W 080°48'4 4.3 280 / 111020.1 0.1-2.4 7.0
2014-Nov-26 02:00N 44°54' W 080°54'7 3.7 290 / 131019.7 0.3-3.4 6.6
2014-Nov-26 00:00N 45°00' W 081°00'7 7.4 280 / 221016.9 -0.0-4.5 6.5
2014-Nov-25 23:00N 44°54' W 080°54'1212.0 250 / 191016.3 -0.3-2.1 6.8
2014-Nov-25 22:00N 44°42' W 080°54'6 6.0 220 / 101015.3 0.8-2.4 6.3
2014-Nov-25 21:00N 44°36' W 080°54'0 0.0 260 / 51014.1 0.9-1.8
2014-Nov-25 20:00N 44°36' W 080°54'0 0.0 240 / 71012.7 -0.0-0.8
2014-Nov-25 19:00N 44°36' W 080°54'0 0.0 240 / 121011.6 -0.1-1.1
2014-Nov-25 18:00N 44°36' W 080°54'0 0.0 230 / 121010.0 1.7-2.8
2014-Nov-25 17:00N 44°36' W 080°54'0 0.0 230 / 141009.6 1.7-3.0
2014-Nov-25 16:00N 44°36' W 080°54'0 0.0 220 / 141009.1 1.5-2.9
2014-Nov-25 15:00N 44°36' W 080°54'0 0.0 220 / 101008.3 1.5-2.7
2014-Nov-25 14:00N 44°36' W 080°54'0 0.0 220 / 121007.6 1.5-3.0
2014-Nov-25 13:00N 44°36' W 080°54'0 0.0 210 / 131006.5 1.6-2.4
2014-Nov-25 12:00N 44°36' W 080°54'0 0.0 210 / 151005.7 1.9-2.1
2014-Nov-25 11:00N 44°36' W 080°54'0 0.0 210 / 141005.0 2.0-2.5
2014-Nov-25 10:00N 44°36' W 080°54'0 0.0 210 / 131004.4 2.3-1.8
2014-Nov-25 09:00N 44°36' W 080°54'0 0.0 220 / 111003.6 2.2-1.6
2014-Nov-25 08:00N 44°36' W 080°54'0 0.0 220 / 141002.9 2.5-1.4
2014-Nov-25 07:00N 44°36' W 080°54'0 0.0 210 / 131001.8 2.8-0.7
2014-Nov-25 06:00N 44°36' W 080°54'0 0.0 210 / 141000.5 3.2-0.8
2014-Nov-25 05:00N 44°36' W 080°54'0 0.0 210 / 15999.5 3.6-0.2
2014-Nov-25 04:00N 44°36' W 080°54'0 0.0 230 / 16998.5 4.0-0.3
2014-Nov-25 03:00N 44°36' W 080°54'0 0.0 220 / 16997.1 4.3 1.1
2014-Nov-25 02:00N 44°36' W 080°54'0 0.0 220 / 17996.0 5.1 0.6
2014-Nov-25 01:00N 44°36' W 080°54'0 0.0 220 / 22993.8 5.3 1.2
2014-Nov-25 00:00N 44°36' W 080°54'0 0.0 210 / 21991.8 5.8 2.8
2014-Nov-24 23:00N 44°36' W 080°54'0 0.0 210 / 21989.7 8.0 5.8
2014-Nov-24 22:00N 44°36' W 080°54'0 0.0 200 / 17986.5 10.6 8.4
2014-Nov-24 21:00N 44°36' W 080°54'0 0.0 190 / 15984.4 14.110.1
2014-Nov-24 20:00N 44°36' W 080°54'0 0.0 190 / 12983.8 14.311.6
2014-Nov-24 19:00N 44°36' W 080°54'0 0.0 190 / 11983.6 14.511.9
2014-Nov-24 18:00N 44°36' W 080°54'0 0.0 200 / 11983.2 15.011.1
2014-Nov-24 17:00N 44°36' W 080°54'0 0.0 190 / 14983.7 14.811.6
2014-Nov-24 16:00N 44°36' W 080°54'0 0.0 200 / 14984.0 14.011.5
2014-Nov-24 15:00N 44°36' W 080°54'0 0.0 200 / 14983.8 13.911.2
2014-Nov-24 14:00N 44°36' W 080°54'0 0.0 200 / 12983.4 13.012.0
2014-Nov-24 13:00N 44°36' W 080°54'0 0.0 190 / 13982.9 13.712.2
2014-Nov-24 12:00N 44°36' W 080°54'0 0.0 180 / 8982.9 12.511.6
2014-Nov-24 11:00N 44°36' W 080°54'0 0.0 170 / 6983.9 11.710.9
2014-Nov-24 10:00N 44°36' W 080°54'0 0.0 160 / 6985.5 10.6 9.6
2014-Nov-24 09:00N 44°36' W 080°54'0 0.0 160 / 6987.1 10.7 9.1
2014-Nov-24 08:00N 44°36' W 080°54'0 0.0 160 / 6989.2 10.3 9.0
2014-Nov-24 07:00N 44°36' W 080°54'0 0.0 120 / 5991.5 8.6 7.9
2014-Nov-24 06:00N 44°36' W 080°54'0 0.0 120 / 4994.8 9.7 6.7
2014-Nov-24 05:00N 44°36' W 080°54'0 0.0 130 / 3997.9 11.3 4.8
2014-Nov-24 04:00N 44°36' W 080°54'0 0.0 160 / 31000.5 11.9 5.6 2.6
2014-Nov-24 03:00N 44°36' W 080°54'0 0.0 170 / 41002.1 11.6 6.7 2.7
2014-Nov-24 02:00N 44°36' W 080°54'0 0.0 180 / 21003.6 12.1 6.9 3.1
2014-Nov-24 01:00N 44°36' W 080°54'7 7.4 140 / 21005.5 8.9 7.1 7.5
2014-Nov-24 00:00N 44°42' W 080°48'9 8.5 110 / 51006.9 8.7 6.8 7.4
2014-Nov-23 23:00N 44°42' W 080°36'4 4.3 140 / 151007.6 8.6 7.0 7.5
2014-Nov-23 22:00N 44°42' W 080°30'1010.4 120 / 101008.8 8.6 7.6 7.6
2014-Nov-23 21:00N 44°36' W 080°18'0 0.0 140 / 111009.8 9.6 7.7 6.8
2014-Nov-23 20:00N 44°36' W 080°18'1514.7 110 / 131010.5 9.0 7.2 7.9
2014-Nov-23 19:00N 44°48' W 080°30'7 7.4 160 / 131010.6 8.2 7.1 7.7
2014-Nov-23 18:00N 44°54' W 080°36'6 6.0 140 / 131011.5 8.1 6.9 7.4
2014-Nov-23 17:00N 45°00' W 080°36'1312.7 150 / 151012.5 7.9 7.2 7.3
2014-Nov-23 16:00N 45°12' W 080°30'1312.7 130 / 191012.3 7.1 6.9 6.0
2014-Nov-23 15:00N 45°24' W 080°24'1414.0 130 / 91013.6 5.7 5.6 3.3
2014-Nov-23 14:00N 45°18' W 080°06'4 2.1 150 / 91013.8 5.8 5.6 5.3
2014-Nov-23 12:00N 45°18' W 080°00'0 0.0 130 / 41013.6 5.0 4.8
2014-Nov-23 06:00N 45°18' W 080°00'0 0.0 250 / 81012.2 6.2 6.1
2014-Nov-23 00:00N 45°18' W 080°00'0 0.0 220 / 61011.5 4.7 4.6
2014-Nov-22 18:00N 45°18' W 080°00'0 0.0 190 / 61012.8 2.3 1.9
2014-Nov-22 14:00N 45°18' W 080°00'0 0.0 200 / 61015.9 2.3-2.1
2014-Nov-22 13:00N 45°18' W 080°00'0 0.0 190 / 51016.8 1.6-3.2
2014-Nov-22 12:00N 45°18' W 080°00'0 0.0 200 / 71017.8 0.8-3.8
2014-Nov-22 11:00N 45°18' W 080°00'0 0.0 200 / 81018.7 0.2-3.5
2014-Nov-22 10:00N 45°18' W 080°00'0 0.0 190 / 101019.5 -0.3-3.2
2014-Nov-22 09:00N 45°18' W 080°00'0 0.0 210 / 111020.6 -0.3-3.2
2014-Nov-22 08:00N 45°18' W 080°00'0 0.0 210 / 111021.6 -0.7-3.9
2014-Nov-22 07:00N 45°18' W 080°00'0 0.0 210 / 131022.0 -0.9-4.1
2014-Nov-22 06:00N 45°18' W 080°00'0 0.0 200 / 111023.1 -1.6-4.8
2014-Nov-22 05:00N 45°18' W 080°00'0 0.0 210 / 121024.0 -1.6-5.1
2014-Nov-22 04:00N 45°18' W 080°00'0 0.0 220 / 101025.0 -1.9-5.1
2014-Nov-22 03:00N 45°18' W 080°00'0 0.0 210 / 111025.4 -2.0-5.7
2014-Nov-22 02:00N 45°18' W 080°00'0 0.0 220 / 111026.0 -1.8-5.3
2014-Nov-22 01:00N 45°18' W 080°00'0 0.0 220 / 91026.7 -1.8-5.9
2014-Nov-22 00:00N 45°18' W 080°00'0 0.0 230 / 71027.2 -3.1-5.8
2014-Nov-21 23:00N 45°18' W 080°00'0 0.0 110 / 61027.6 -5.7-6.6
2014-Nov-21 22:00N 45°18' W 080°00'0 0.0 100 / 41027.6 -5.7-6.8
2014-Nov-21 21:00N 45°18' W 080°00'0 0.0 100 / 41028.0 -5.8-7.2 4.8
2014-Nov-21 20:00N 45°18' W 080°00'0 0.0 100 / 31027.6 -6.1-7.6 4.9
2014-Nov-21 19:00N 45°18' W 080°00'8 8.4 080 / 61027.5 -6.8-8.1 5.7
2014-Nov-21 18:00N 45°18' W 080°12'1312.7 030 / 81027.2 -6.4-7.3 3.1
2014-Nov-21 17:00N 45°18' W 080°30'1312.7 290 / 161027.2 -2.9-4.7 6.0
2014-Nov-21 16:00N 45°18' W 080°48'1312.7 280 / 121027.4 -3.2-6.4 6.8
2014-Nov-21 15:00N 45°18' W 081°06'1312.7 270 / 131027.0 -3.8-7.0 6.5
2014-Nov-21 14:00N 45°18' W 081°24'2211.0 280 / 131026.2 -4.7-8.9 6.0
2014-Nov-21 12:00N 45°24' W 081°54'1010.3 320 / 121024.6 -4.7-9.7 5.5
2014-Nov-21 11:00N 45°30' W 082°06'1010.3 330 / 81023.8 -6.9-9.7 6.1
2014-Nov-21 10:00N 45°36' W 082°18'8 8.4 330 / 81022.9 -6.5-9.9 4.6
2014-Nov-21 09:00N 45°36' W 082°30'1010.3 300 / 91022.3 -5.9-10.0 4.8
2014-Nov-21 08:00N 45°42' W 082°42'8 8.4 300 / 101021.7 -6.4-9.9 4.8
2014-Nov-21 07:00N 45°42' W 082°54'1413.9 310 / 111020.5 -6.2-10.2 4.9
2014-Nov-21 06:00N 45°48' W 083°12'6 6.0 310 / 121019.9 -6.1-10.4 6.1
2014-Nov-21 05:00N 45°54' W 083°12'4 4.2 340 / 121018.5 -6.4-11.2 6.2
2014-Nov-21 04:00N 45°54' W 083°06'0 0.0 340 / 131017.4 -6.2-10.3
2014-Nov-21 03:00N 45°54' W 083°06'0 0.0 340 / 171016.4 -5.8-10.2
2014-Nov-21 02:00N 45°54' W 083°06'0 0.0 350 / 171015.3 -5.5-9.1
2014-Nov-21 01:00N 45°54' W 083°06'0 0.0 340 / 181013.8 -4.7-9.2
2014-Nov-21 00:00N 45°54' W 083°06'0 0.0 350 / 151012.6 -4.4-9.1
2014-Nov-20 23:00N 45°54' W 083°06'0 0.0 350 / 171011.2 -4.2-8.8
2014-Nov-20 22:00N 45°54' W 083°06'0 0.0 340 / 171009.7 -3.9-8.7
2014-Nov-20 21:00N 45°54' W 083°06'0 0.0 330 / 181008.2 -4.0-7.5
2014-Nov-20 20:00N 45°54' W 083°06'0 0.0 280 / 141007.0 -5.7-6.6
2014-Nov-20 19:00N 45°54' W 083°06'0 0.0 270 / 161006.4 -5.6-8.1
2014-Nov-20 18:00N 45°54' W 083°06'0 0.0 270 / 151005.7 -5.4-9.2
2014-Nov-20 17:00N 45°54' W 083°06'0 0.0 270 / 151005.6 -4.3-9.9
2014-Nov-20 16:00N 45°54' W 083°06'0 0.0 260 / 121005.3 -5.0-10.4 5.8
2014-Nov-20 15:00N 45°54' W 083°06'0 0.0 270 / 131004.8 -5.1-10.1 5.8
2014-Nov-20 14:00N 45°54' W 083°06'0 0.0 270 / 151004.5 -5.5-9.7 5.8
2014-Nov-20 12:00N 45°54' W 083°06'0 0.0 270 / 191002.8 -5.1-9.2
2014-Nov-20 11:00N 45°54' W 083°06'0 0.0 270 / 171002.3 -4.8-8.5
2014-Nov-20 10:00N 45°54' W 083°06'0 0.0 270 / 211001.9 -5.0-7.0
2014-Nov-20 09:00N 45°54' W 083°06'0 0.0 270 / 181001.0 -4.8-6.2
2014-Nov-20 08:00N 45°54' W 083°06'0 0.0 270 / 161000.8 -4.8-6.5
2014-Nov-20 07:00N 45°54' W 083°06'0 0.0 270 / 161000.0 -5.0-6.7
2014-Nov-20 06:00N 45°54' W 083°06'0 0.0 260 / 20999.9 -4.9-6.8
2014-Nov-20 05:00N 45°54' W 083°06'0 0.0 270 / 18999.1 -4.1-5.9
2014-Nov-20 04:00N 45°54' W 083°06'0 0.0 300 / 16998.6 -3.2-4.4 6.1
2014-Nov-20 03:00N 45°54' W 083°06'0 0.0 240 / 11999.0 -3.5-5.4 6.0
2014-Nov-20 02:00N 45°54' W 083°06'7 7.3 250 / 11999.6 -3.4-4.5 6.1
2014-Nov-20 01:00N 46°00' W 083°12'1413.9 240 / 121000.4 -3.2-4.1 6.6
2014-Nov-20 00:00N 46°06' W 083°30'8 8.3 220 / 121001.2 -3.5-4.2 5.3
2014-Nov-19 23:00N 46°06' W 083°42'1010.3 190 / 131001.6 -3.6-4.1 2.8
2014-Nov-19 22:00N 46°00' W 083°54'7 7.3 180 / 151002.1 -3.9-4.6 2.2
2014-Nov-19 21:00N 46°06' W 084°00'1312.7 130 / 151002.6 -3.9-4.8 2.9
2014-Nov-19 20:00N 46°18' W 084°06'7 7.3 100 / 91004.1 -5.1-6.2 3.9
2014-Nov-19 19:00N 46°24' W 084°12'7 7.3 080 / 91005.5 -7.1-8.5 4.1
2014-Nov-19 18:00N 46°30' W 084°18'0 0.0 100 / 71006.9 -7.6-9.3 4.5
2014-Nov-19 17:00N 46°30' W 084°18'4 4.1 070 / 81008.3 -9.2-10.6 4.4
2014-Nov-19 16:00N 46°30' W 084°24'8 8.3 080 / 21009.6 -10.8-13.3 5.1
2014-Nov-19 15:00N 46°30' W 084°36'1212.0 130 / 131009.6 -8.8-11.3 6.2
2014-Nov-19 14:00N 46°42' W 084°36'12 6.0 210 / 151009.0 -6.4-9.4 6.0
2014-Nov-19 12:00N 46°54' W 084°36'0 0.0 210 / 151009.4 -6.6-11.6
2014-Nov-19 11:00N 46°54' W 084°36'0 0.0 220 / 201009.5 -6.5-10.4
2014-Nov-19 08:00N 46°54' W 084°36'0 0.0 230 / 241009.6 -6.5-7.6
2014-Nov-19 07:00N 46°54' W 084°36'0 0.0 240 / 221009.9 -6.8-7.8
2014-Nov-19 06:00N 46°54' W 084°36'0 0.0 240 / 221009.7 -6.2-7.3
2014-Nov-19 00:00N 46°54' W 084°36'0 0.0 300 / 191008.5 -4.6-9.3
2014-Nov-18 18:00N 46°54' W 084°36'0 0.0 310 / 191003.6 -5.3-8.3 6.2
2014-Nov-18 14:00N 46°54' W 084°36'0 0.0 350 / 111000.9 -8.9-11.1
2014-Nov-18 13:00N 46°54' W 084°36'0 0.0 340 / 13999.7 -8.6-11.2
2014-Nov-18 12:00N 46°54' W 084°36'0 0.0 330 / 10998.4 -8.0-10.7
2014-Nov-18 11:00N 46°54' W 084°36'0 0.0 340 / 14997.4 -7.0-9.7
2014-Nov-18 10:00N 46°54' W 084°36'0 0.0 350 / 11996.6 -5.9-8.5
2014-Nov-18 09:00N 46°54' W 084°36'0 0.0 330 / 7996.2 -5.6-7.5 6.4
2014-Nov-18 08:00N 46°54' W 084°36'0 0.0 350 / 10995.9 -4.8-8.1 6.4
2014-Nov-18 07:00N 46°54' W 084°36'4 4.1 340 / 11995.4 -4.8-5.7 6.3
2014-Nov-18 06:00N 46°54' W 084°42'1010.2 240 / 9995.5 -3.8-5.7 6.5
2014-Nov-18 05:00N 47°00' W 084°54'1514.5 230 / 8995.7 -3.5-6.0 6.0
2014-Nov-18 04:00N 47°12' W 085°06'1312.7 310 / 7996.3 -3.5-9.4 5.2
2014-Nov-18 03:00N 47°24' W 085°12'   330 / 10996.7 -3.3-7.9 5.9
Track history (hours):
 
Tides and Currents Weather Stations Pressure Air Temp Water Temp Dewpoint Dewpoint Depression Visibility Wind Speed Wind Dir Waves Ship Positions

CCGS Samuel Risley (Canada)

Medium Navaids Tender - Light Icebreaker

Last reported at 2014-Nov-28 03:00 UTC. Time now 2014-Nov-28 04:16 UTC.
Position N 43°42' W 082°36'.

Length 69.73 m; beam 13.7 m; draft 5.2 m.

Type: SAR. MMSI: 316001890.

Wind from 310 at 16 knots

Barometer 1025.6 mb
Air temperature -4.7 ° C
Dewpoint -10.1 ° C
Water temperature 5.0 ° C

Date/timePositionNaut miles runAvg speedWind from/ knotsBaromVisibWave heightAir tempDewpointWater temp
2014-Nov-28 03:00N 43°42' W 082°36'6 6.0 310 / 161025.6 -4.7-10.1 5.0
2014-Nov-28 02:00N 43°48' W 082°36'31 5.1 310 / 211025.2 -4.1-9.9 2.9
2014-Nov-27 20:00N 43°54' W 081°54'1918.5 010 / 181019.2 1.1-0.6 6.7
2014-Nov-27 19:00N 44°12' W 081°48'7 7.4 020 / 141019.1 -0.1-0.8 6.9
2014-Nov-27 18:00N 44°18' W 081°42'1514.7 020 / 101019.4 -0.6-2.7 6.4
2014-Nov-27 17:00N 44°30' W 081°30'4 4.3 010 / 41019.6 -0.7-4.1 4.3
2014-Nov-27 16:00N 44°30' W 081°24'0 0.0 080 / 21019.9 -0.3-4.4 4.4
2014-Nov-27 15:00N 44°30' W 081°24'0 0.0 050 / 91019.7 1.1-3.4 4.9
2014-Nov-27 14:00N 44°30' W 081°24'7 3.7 060 / 91019.3 -1.4-4.4 4.5
2014-Nov-27 12:00N 44°36' W 081°30'6 6.0 360 / 51019.1 -0.4-3.2 6.4
2014-Nov-27 11:00N 44°42' W 081°30'7 7.4 360 / 61019.0 -0.2-3.1 6.6
2014-Nov-27 10:00N 44°48' W 081°36'6 6.0 350 / 51018.9 -0.1-3.1 6.8
2014-Nov-27 09:00N 44°54' W 081°36'4 4.3 360 / 51018.7 -0.4-3.4 6.8
2014-Nov-27 08:00N 44°54' W 081°42'1212.0 360 / 41019.4 -0.5-3.6 6.7
2014-Nov-27 07:00N 45°06' W 081°42'7 7.3 360 / 41019.9 -0.9-3.9 6.5
2014-Nov-27 06:00N 45°12' W 081°48'6 6.0 050 / 71020.0 -1.3-4.1 6.0
2014-Nov-27 05:00N 45°18' W 081°48'0 0.0 040 / 61019.7 -1.0-4.0 6.3
2014-Nov-27 04:00N 45°18' W 081°48'1312.7 080 / 151020.3 2.5-2.3 5.6
2014-Nov-27 03:00N 45°18' W 081°30'1010.3 070 / 171020.6 0.3-3.5 5.9
2014-Nov-27 02:00N 45°24' W 081°18'14 7.0 070 / 161021.2 -1.0-4.8 6.4
2014-Nov-27 00:00N 45°30' W 081°00'7 7.3 040 / 191021.8 -2.5-6.3 5.9
2014-Nov-26 23:00N 45°24' W 080°54'1514.7 040 / 161022.1 -1.8-5.6 6.9
2014-Nov-26 22:00N 45°12' W 080°42'1010.4 040 / 111022.4 -0.9-5.5 7.0
2014-Nov-26 21:00N 45°06' W 080°30'1717.5 040 / 91022.2 -0.1-5.3 6.7
2014-Nov-26 20:00N 44°54' W 080°12'1312.8 080 / 61022.4 -0.0-5.1 6.6
2014-Nov-26 19:00N 44°54' W 079°54'6 6.0 100 / 61022.5 -0.3-5.6 3.6
2014-Nov-26 18:00N 44°48' W 079°54'0 0.0 060 / 61022.4 -0.5-5.7 2.7
2014-Nov-26 17:00N 44°48' W 079°54'6 6.0 340 / 21022.8 -0.6-5.4 2.8
2014-Nov-26 16:00N 44°54' W 079°54'9 8.5 070 / 111023.9 -1.3-6.0 5.0
2014-Nov-26 15:00N 44°54' W 080°06'1312.7 060 / 121024.6 -1.4-5.6 6.9
2014-Nov-26 14:00N 45°06' W 080°12'8 4.2 060 / 151024.5 -2.3-6.5 6.5
2014-Nov-26 12:00N 45°06' W 080°24'1010.4 040 / 141023.8 -1.7-5.9 6.8
2014-Nov-26 11:00N 45°00' W 080°36'7 7.4 030 / 141023.0 -1.4-4.9 7.2
2014-Nov-26 10:00N 44°54' W 080°42'9 8.5 020 / 171022.6 -0.7-2.0 7.2
2014-Nov-26 09:00N 44°54' W 080°54'6 6.0 350 / 91023.1 1.4-1.7 6.9
2014-Nov-26 08:00N 45°00' W 080°54'6 6.0 320 / 61023.5 0.1-2.6 6.6
2014-Nov-26 07:00N 44°54' W 080°54'4 4.3 300 / 81022.9 0.2-2.9 7.0
2014-Nov-26 06:00N 44°54' W 080°48'6 6.0 300 / 71022.5 0.2-2.3
2014-Nov-26 05:00N 44°48' W 080°48'4 4.3 240 / 81022.3 1.0-3.8 7.0
2014-Nov-26 04:00N 44°48' W 080°42'7 7.4 270 / 61021.4 -0.0-1.9 7.0
2014-Nov-26 03:00N 44°54' W 080°48'4 4.3 280 / 111020.1 0.1-2.4 7.0
2014-Nov-26 02:00N 44°54' W 080°54'7 3.7 290 / 131019.7 0.3-3.4 6.6
2014-Nov-26 00:00N 45°00' W 081°00'7 7.4 280 / 221016.9 -0.0-4.5 6.5
2014-Nov-25 23:00N 44°54' W 080°54'1212.0 250 / 191016.3 -0.3-2.1 6.8
2014-Nov-25 22:00N 44°42' W 080°54'6 6.0 220 / 101015.3 0.8-2.4 6.3
2014-Nov-25 21:00N 44°36' W 080°54'0 0.0 260 / 51014.1 0.9-1.8
2014-Nov-25 20:00N 44°36' W 080°54'0 0.0 240 / 71012.7 -0.0-0.8
2014-Nov-25 19:00N 44°36' W 080°54'0 0.0 240 / 121011.6 -0.1-1.1
2014-Nov-25 18:00N 44°36' W 080°54'0 0.0 230 / 121010.0 1.7-2.8
2014-Nov-25 17:00N 44°36' W 080°54'0 0.0 230 / 141009.6 1.7-3.0
2014-Nov-25 16:00N 44°36' W 080°54'0 0.0 220 / 141009.1 1.5-2.9
2014-Nov-25 15:00N 44°36' W 080°54'0 0.0 220 / 101008.3 1.5-2.7
2014-Nov-25 14:00N 44°36' W 080°54'0 0.0 220 / 121007.6 1.5-3.0
2014-Nov-25 13:00N 44°36' W 080°54'0 0.0 210 / 131006.5 1.6-2.4
2014-Nov-25 12:00N 44°36' W 080°54'0 0.0 210 / 151005.7 1.9-2.1
2014-Nov-25 11:00N 44°36' W 080°54'0 0.0 210 / 141005.0 2.0-2.5
2014-Nov-25 10:00N 44°36' W 080°54'0 0.0 210 / 131004.4 2.3-1.8
2014-Nov-25 09:00N 44°36' W 080°54'0 0.0 220 / 111003.6 2.2-1.6
2014-Nov-25 08:00N 44°36' W 080°54'0 0.0 220 / 141002.9 2.5-1.4
2014-Nov-25 07:00N 44°36' W 080°54'0 0.0 210 / 131001.8 2.8-0.7
2014-Nov-25 06:00N 44°36' W 080°54'0 0.0 210 / 141000.5 3.2-0.8
2014-Nov-25 05:00N 44°36' W 080°54'0 0.0 210 / 15999.5 3.6-0.2
2014-Nov-25 04:00N 44°36' W 080°54'0 0.0 230 / 16998.5 4.0-0.3
2014-Nov-25 03:00N 44°36' W 080°54'0 0.0 220 / 16997.1 4.3 1.1
2014-Nov-25 02:00N 44°36' W 080°54'0 0.0 220 / 17996.0 5.1 0.6
2014-Nov-25 01:00N 44°36' W 080°54'0 0.0 220 / 22993.8 5.3 1.2
2014-Nov-25 00:00N 44°36' W 080°54'0 0.0 210 / 21991.8 5.8 2.8
2014-Nov-24 23:00N 44°36' W 080°54'0 0.0 210 / 21989.7 8.0 5.8
2014-Nov-24 22:00N 44°36' W 080°54'0 0.0 200 / 17986.5 10.6 8.4
2014-Nov-24 21:00N 44°36' W 080°54'0 0.0 190 / 15984.4 14.110.1
2014-Nov-24 20:00N 44°36' W 080°54'0 0.0 190 / 12983.8 14.311.6
2014-Nov-24 19:00N 44°36' W 080°54'0 0.0 190 / 11983.6 14.511.9
2014-Nov-24 18:00N 44°36' W 080°54'0 0.0 200 / 11983.2 15.011.1
2014-Nov-24 17:00N 44°36' W 080°54'0 0.0 190 / 14983.7 14.811.6
2014-Nov-24 16:00N 44°36' W 080°54'0 0.0 200 / 14984.0 14.011.5
2014-Nov-24 15:00N 44°36' W 080°54'0 0.0 200 / 14983.8 13.911.2
2014-Nov-24 14:00N 44°36' W 080°54'0 0.0 200 / 12983.4 13.012.0
2014-Nov-24 13:00N 44°36' W 080°54'0 0.0 190 / 13982.9 13.712.2
2014-Nov-24 12:00N 44°36' W 080°54'0 0.0 180 / 8982.9 12.511.6
2014-Nov-24 11:00N 44°36' W 080°54'0 0.0 170 / 6983.9 11.710.9
2014-Nov-24 10:00N 44°36' W 080°54'0 0.0 160 / 6985.5 10.6 9.6
2014-Nov-24 09:00N 44°36' W 080°54'0 0.0 160 / 6987.1 10.7 9.1
2014-Nov-24 08:00N 44°36' W 080°54'0 0.0 160 / 6989.2 10.3 9.0
2014-Nov-24 07:00N 44°36' W 080°54'0 0.0 120 / 5991.5 8.6 7.9
2014-Nov-24 06:00N 44°36' W 080°54'0 0.0 120 / 4994.8 9.7 6.7
2014-Nov-24 05:00N 44°36' W 080°54'0 0.0 130 / 3997.9 11.3 4.8
2014-Nov-24 04:00N 44°36' W 080°54'0 0.0 160 / 31000.5 11.9 5.6 2.6
2014-Nov-24 03:00N 44°36' W 080°54'0 0.0 170 / 41002.1 11.6 6.7 2.7
2014-Nov-24 02:00N 44°36' W 080°54'0 0.0 180 / 21003.6 12.1 6.9 3.1
2014-Nov-24 01:00N 44°36' W 080°54'7 7.4 140 / 21005.5 8.9 7.1 7.5
2014-Nov-24 00:00N 44°42' W 080°48'9 8.5 110 / 51006.9 8.7 6.8 7.4
2014-Nov-23 23:00N 44°42' W 080°36'4 4.3 140 / 151007.6 8.6 7.0 7.5
2014-Nov-23 22:00N 44°42' W 080°30'1010.4 120 / 101008.8 8.6 7.6 7.6
2014-Nov-23 21:00N 44°36' W 080°18'0 0.0 140 / 111009.8 9.6 7.7 6.8
2014-Nov-23 20:00N 44°36' W 080°18'1514.7 110 / 131010.5 9.0 7.2 7.9
2014-Nov-23 19:00N 44°48' W 080°30'7 7.4 160 / 131010.6 8.2 7.1 7.7
2014-Nov-23 18:00N 44°54' W 080°36'6 6.0 140 / 131011.5 8.1 6.9 7.4
2014-Nov-23 17:00N 45°00' W 080°36'1312.7 150 / 151012.5 7.9 7.2 7.3
2014-Nov-23 16:00N 45°12' W 080°30'1312.7 130 / 191012.3 7.1 6.9 6.0
2014-Nov-23 15:00N 45°24' W 080°24'1414.0 130 / 91013.6 5.7 5.6 3.3
2014-Nov-23 14:00N 45°18' W 080°06'4 2.1 150 / 91013.8 5.8 5.6 5.3
2014-Nov-23 12:00N 45°18' W 080°00'0 0.0 130 / 41013.6 5.0 4.8
2014-Nov-23 06:00N 45°18' W 080°00'0 0.0 250 / 81012.2 6.2 6.1
2014-Nov-23 00:00N 45°18' W 080°00'0 0.0 220 / 61011.5 4.7 4.6
2014-Nov-22 18:00N 45°18' W 080°00'0 0.0 190 / 61012.8 2.3 1.9
2014-Nov-22 14:00N 45°18' W 080°00'0 0.0 200 / 61015.9 2.3-2.1
2014-Nov-22 13:00N 45°18' W 080°00'0 0.0 190 / 51016.8 1.6-3.2
2014-Nov-22 12:00N 45°18' W 080°00'0 0.0 200 / 71017.8 0.8-3.8
2014-Nov-22 11:00N 45°18' W 080°00'0 0.0 200 / 81018.7 0.2-3.5
2014-Nov-22 10:00N 45°18' W 080°00'0 0.0 190 / 101019.5 -0.3-3.2
2014-Nov-22 09:00N 45°18' W 080°00'0 0.0 210 / 111020.6 -0.3-3.2
2014-Nov-22 08:00N 45°18' W 080°00'0 0.0 210 / 111021.6 -0.7-3.9
2014-Nov-22 07:00N 45°18' W 080°00'0 0.0 210 / 131022.0 -0.9-4.1
2014-Nov-22 06:00N 45°18' W 080°00'0 0.0 200 / 111023.1 -1.6-4.8
2014-Nov-22 05:00N 45°18' W 080°00'0 0.0 210 / 121024.0 -1.6-5.1
2014-Nov-22 04:00N 45°18' W 080°00'0 0.0 220 / 101025.0 -1.9-5.1
2014-Nov-22 03:00N 45°18' W 080°00'0 0.0 210 / 111025.4 -2.0-5.7
2014-Nov-22 02:00N 45°18' W 080°00'0 0.0 220 / 111026.0 -1.8-5.3
2014-Nov-22 01:00N 45°18' W 080°00'0 0.0 220 / 91026.7 -1.8-5.9
2014-Nov-22 00:00N 45°18' W 080°00'0 0.0 230 / 71027.2 -3.1-5.8
2014-Nov-21 23:00N 45°18' W 080°00'0 0.0 110 / 61027.6 -5.7-6.6
2014-Nov-21 22:00N 45°18' W 080°00'0 0.0 100 / 41027.6 -5.7-6.8
2014-Nov-21 21:00N 45°18' W 080°00'0 0.0 100 / 41028.0 -5.8-7.2 4.8
2014-Nov-21 20:00N 45°18' W 080°00'0 0.0 100 / 31027.6 -6.1-7.6 4.9
2014-Nov-21 19:00N 45°18' W 080°00'8 8.4 080 / 61027.5 -6.8-8.1 5.7
2014-Nov-21 18:00N 45°18' W 080°12'1312.7 030 / 81027.2 -6.4-7.3 3.1
2014-Nov-21 17:00N 45°18' W 080°30'1312.7 290 / 161027.2 -2.9-4.7 6.0
2014-Nov-21 16:00N 45°18' W 080°48'1312.7 280 / 121027.4 -3.2-6.4 6.8
2014-Nov-21 15:00N 45°18' W 081°06'1312.7 270 / 131027.0 -3.8-7.0 6.5
2014-Nov-21 14:00N 45°18' W 081°24'2211.0 280 / 131026.2 -4.7-8.9 6.0
2014-Nov-21 12:00N 45°24' W 081°54'1010.3 320 / 121024.6 -4.7-9.7 5.5
2014-Nov-21 11:00N 45°30' W 082°06'1010.3 330 / 81023.8 -6.9-9.7 6.1
2014-Nov-21 10:00N 45°36' W 082°18'8 8.4 330 / 81022.9 -6.5-9.9 4.6
2014-Nov-21 09:00N 45°36' W 082°30'1010.3 300 / 91022.3 -5.9-10.0 4.8
2014-Nov-21 08:00N 45°42' W 082°42'8 8.4 300 / 101021.7 -6.4-9.9 4.8
2014-Nov-21 07:00N 45°42' W 082°54'1413.9 310 / 111020.5 -6.2-10.2 4.9
2014-Nov-21 06:00N 45°48' W 083°12'6 6.0 310 / 121019.9 -6.1-10.4 6.1
2014-Nov-21 05:00N 45°54' W 083°12'4 4.2 340 / 121018.5 -6.4-11.2 6.2
2014-Nov-21 04:00N 45°54' W 083°06'0 0.0 340 / 131017.4 -6.2-10.3
2014-Nov-21 03:00N 45°54' W 083°06'0 0.0 340 / 171016.4 -5.8-10.2
2014-Nov-21 02:00N 45°54' W 083°06'0 0.0 350 / 171015.3 -5.5-9.1
2014-Nov-21 01:00N 45°54' W 083°06'0 0.0 340 / 181013.8 -4.7-9.2
2014-Nov-21 00:00N 45°54' W 083°06'0 0.0 350 / 151012.6 -4.4-9.1
2014-Nov-20 23:00N 45°54' W 083°06'0 0.0 350 / 171011.2 -4.2-8.8
2014-Nov-20 22:00N 45°54' W 083°06'0 0.0 340 / 171009.7 -3.9-8.7
2014-Nov-20 21:00N 45°54' W 083°06'0 0.0 330 / 181008.2 -4.0-7.5
2014-Nov-20 20:00N 45°54' W 083°06'0 0.0 280 / 141007.0 -5.7-6.6
2014-Nov-20 19:00N 45°54' W 083°06'0 0.0 270 / 161006.4 -5.6-8.1
2014-Nov-20 18:00N 45°54' W 083°06'0 0.0 270 / 151005.7 -5.4-9.2
2014-Nov-20 17:00N 45°54' W 083°06'0 0.0 270 / 151005.6 -4.3-9.9
2014-Nov-20 16:00N 45°54' W 083°06'0 0.0 260 / 121005.3 -5.0-10.4 5.8
2014-Nov-20 15:00N 45°54' W 083°06'0 0.0 270 / 131004.8 -5.1-10.1 5.8
2014-Nov-20 14:00N 45°54' W 083°06'0 0.0 270 / 151004.5 -5.5-9.7 5.8
2014-Nov-20 12:00N 45°54' W 083°06'0 0.0 270 / 191002.8 -5.1-9.2
2014-Nov-20 11:00N 45°54' W 083°06'0 0.0 270 / 171002.3 -4.8-8.5
2014-Nov-20 10:00N 45°54' W 083°06'0 0.0 270 / 211001.9 -5.0-7.0
2014-Nov-20 09:00N 45°54' W 083°06'0 0.0 270 / 181001.0 -4.8-6.2
2014-Nov-20 08:00N 45°54' W 083°06'0 0.0 270 / 161000.8 -4.8-6.5
2014-Nov-20 07:00N 45°54' W 083°06'0 0.0 270 / 161000.0 -5.0-6.7
2014-Nov-20 06:00N 45°54' W 083°06'0 0.0 260 / 20999.9 -4.9-6.8
2014-Nov-20 05:00N 45°54' W 083°06'0 0.0 270 / 18999.1 -4.1-5.9
2014-Nov-20 04:00N 45°54' W 083°06'0 0.0 300 / 16998.6 -3.2-4.4 6.1
2014-Nov-20 03:00N 45°54' W 083°06'0 0.0 240 / 11999.0 -3.5-5.4 6.0
2014-Nov-20 02:00N 45°54' W 083°06'7 7.3 250 / 11999.6 -3.4-4.5 6.1
2014-Nov-20 01:00N 46°00' W 083°12'1413.9 240 / 121000.4 -3.2-4.1 6.6
2014-Nov-20 00:00N 46°06' W 083°30'8 8.3 220 / 121001.2 -3.5-4.2 5.3
2014-Nov-19 23:00N 46°06' W 083°42'1010.3 190 / 131001.6 -3.6-4.1 2.8
2014-Nov-19 22:00N 46°00' W 083°54'7 7.3 180 / 151002.1 -3.9-4.6 2.2
2014-Nov-19 21:00N 46°06' W 084°00'1312.7 130 / 151002.6 -3.9-4.8 2.9
2014-Nov-19 20:00N 46°18' W 084°06'7 7.3 100 / 91004.1 -5.1-6.2 3.9
2014-Nov-19 19:00N 46°24' W 084°12'7 7.3 080 / 91005.5 -7.1-8.5 4.1
2014-Nov-19 18:00N 46°30' W 084°18'0 0.0 100 / 71006.9 -7.6-9.3 4.5
2014-Nov-19 17:00N 46°30' W 084°18'4 4.1 070 / 81008.3 -9.2-10.6 4.4
2014-Nov-19 16:00N 46°30' W 084°24'8 8.3 080 / 21009.6 -10.8-13.3 5.1
2014-Nov-19 15:00N 46°30' W 084°36'1212.0 130 / 131009.6 -8.8-11.3 6.2
2014-Nov-19 14:00N 46°42' W 084°36'12 6.0 210 / 151009.0 -6.4-9.4 6.0
2014-Nov-19 12:00N 46°54' W 084°36'0 0.0 210 / 151009.4 -6.6-11.6
2014-Nov-19 11:00N 46°54' W 084°36'0 0.0 220 / 201009.5 -6.5-10.4
2014-Nov-19 08:00N 46°54' W 084°36'0 0.0 230 / 241009.6 -6.5-7.6
2014-Nov-19 07:00N 46°54' W 084°36'0 0.0 240 / 221009.9 -6.8-7.8
2014-Nov-19 06:00N 46°54' W 084°36'0 0.0 240 / 221009.7 -6.2-7.3
2014-Nov-19 00:00N 46°54' W 084°36'0 0.0 300 / 191008.5 -4.6-9.3
2014-Nov-18 18:00N 46°54' W 084°36'0 0.0 310 / 191003.6 -5.3-8.3 6.2
2014-Nov-18 14:00N 46°54' W 084°36'0 0.0 350 / 111000.9 -8.9-11.1
2014-Nov-18 13:00N 46°54' W 084°36'0 0.0 340 / 13999.7 -8.6-11.2
2014-Nov-18 12:00N 46°54' W 084°36'0 0.0 330 / 10998.4 -8.0-10.7
2014-Nov-18 11:00N 46°54' W 084°36'0 0.0 340 / 14997.4 -7.0-9.7
2014-Nov-18 10:00N 46°54' W 084°36'0 0.0 350 / 11996.6 -5.9-8.5
2014-Nov-18 09:00N 46°54' W 084°36'0 0.0 330 / 7996.2 -5.6-7.5 6.4
2014-Nov-18 08:00N 46°54' W 084°36'0 0.0 350 / 10995.9 -4.8-8.1 6.4
2014-Nov-18 07:00N 46°54' W 084°36'4 4.1 340 / 11995.4 -4.8-5.7 6.3
2014-Nov-18 06:00N 46°54' W 084°42'1010.2 240 / 9995.5 -3.8-5.7 6.5
2014-Nov-18 05:00N 47°00' W 084°54'1514.5 230 / 8995.7 -3.5-6.0 6.0
2014-Nov-18 04:00N 47°12' W 085°06'1312.7 310 / 7996.3 -3.5-9.4 5.2
2014-Nov-18 03:00N 47°24' W 085°12'   330 / 10996.7 -3.3-7.9 5.9

Dump ship's entire track history